Weather History for Knox, IN

Change the Weather History Date:

Friday, November 8, 2013

  Actual Average (KVPZ) Record (KVPZ)
Temperature  
Mean Temperature 36 °F 44 °F  
Max Temperature 46 °F 53 °F 73 °F (1999)
Min Temperature 27 °F 36 °F 23 °F (2003)
Degree Days  
Heating Degree Days 28 21  
Month to date heating degree days 154  
Since 1 July heating degree days 684  
Cooling Degree Days 0 0  
Month to date cooling degree days 0  
Year to date cooling degree days 713  
Moisture  
Dew Point 30 °F    
Average Humidity 73    
Maximum Humidity 98    
Minimum Humidity 49    
Precipitation  
Precipitation 0.00 in 0.11 in 0.36 in (2011)
Month to date precipitation 1.03  
Year to date precipitation 33.03  
Sea Level Pressure  
Sea Level Pressure 30.22 in    
Wind  
Wind Speed 8 mph (SW)    
Max Wind Speed 14 mph    
Max Gust Speed 21 mph    
Visibility 9 miles    
Events      
T = Trace of Precipitation, MM = Missing Value Source: NWS Daily Summary

Daily Weather History Graph

Daily Weather History Graph

Search for Another Location

Airport:

Trip Planner

Search our weather history database for the weather conditions in past years. The results will help you decide how hot, cold, wet, or windy it might be!

Date:

Astronomy

Nov. 08, 2013 Rise Set
Actual Time 6:26 AM CST 4:33 PM CST
Civil Twilight 5:57 AM CST 5:02 PM CST
Nautical Twilight 5:24 AM CST 5:35 PM CST
Astronomical Twilight 4:52 AM CST 6:08 PM CST
Moon 11:22 AM CST (11/8) 9:54 PM CST (11/8)
Length of Visible Light 11h 05m
Length of Day
10h 06m
Waxing Crescent, 33% of the Moon is Illuminated
Nov 8
Waxing Crescent
Nov 9
First Quarter
Nov 17
Full
Nov 25
Last Quarter
Dec 2
New

Hourly Weather History & Observations

Time (CST) Temp. Windchill Dew Point Humidity Pressure Visibility Wind Dir Wind Speed Gust Speed Precip Events Conditions
12:15 AM 31.1 °F 24.5 °F 30.0 °F 96% 30.21 in 7.0 mi SW 6.9 mph - N/A   Clear
12:35 AM 30.7 °F 24.1 °F 29.7 °F 96% 30.22 in 7.0 mi WSW 6.9 mph - N/A   Clear
12:55 AM 30.6 °F 23.8 °F 29.7 °F 96% 30.22 in 7.0 mi West 6.9 mph - N/A   Clear
1:15 AM 31.5 °F 23.5 °F 30.2 °F 95% 30.23 in 10.0 mi West 9.2 mph - N/A   Clear
1:35 AM 31.5 °F 24.2 °F 30.0 °F 94% 30.22 in 10.0 mi West 8.1 mph - N/A   Clear
1:55 AM 30.9 °F 22.8 °F 29.7 °F 95% 30.23 in 7.0 mi West 9.2 mph - N/A   Clear
2:15 AM 30.9 °F 23.5 °F 29.7 °F 95% 30.23 in 7.0 mi West 8.1 mph - N/A   Clear
2:35 AM 30.9 °F 23.5 °F 29.8 °F 96% 30.23 in 7.0 mi West 8.1 mph - N/A   Clear
2:55 AM 30.9 °F 22.8 °F 29.7 °F 95% 30.23 in 7.0 mi West 9.2 mph - N/A   Clear
3:15 AM 30.9 °F 22.2 °F 29.7 °F 95% 30.23 in 7.0 mi West 10.4 mph - N/A   Clear
3:35 AM 30.7 °F 22.0 °F 29.3 °F 94% 30.24 in 7.0 mi West 10.4 mph - N/A   Clear
3:55 AM 30.7 °F 22.6 °F 29.3 °F 94% 30.24 in 7.0 mi West 9.2 mph - N/A   Clear
4:15 AM 30.7 °F 23.3 °F 29.3 °F 94% 30.24 in 7.0 mi West 8.1 mph - N/A   Scattered Clouds
4:35 AM 30.7 °F 22.6 °F 29.3 °F 94% 30.26 in 7.0 mi West 9.2 mph - N/A   Clear
4:55 AM 30.4 °F 21.5 °F 29.1 °F 95% 30.26 in 7.0 mi West 10.4 mph - N/A   Clear
5:15 AM 30.2 °F 22.6 °F 29.1 °F 96% 30.27 in 7.0 mi West 8.1 mph - N/A   Clear
5:35 AM 30.2 °F 23.4 °F 29.1 °F 96% 30.28 in 7.0 mi West 6.9 mph - N/A   Clear
5:55 AM 29.5 °F 21.8 °F 28.4 °F 96% 30.28 in 7.0 mi WSW 8.1 mph - N/A   Clear
6:15 AM 28.6 °F 23.5 °F 27.7 °F 96% 30.28 in 5.0 mi WSW 4.6 mph - N/A   Clear
6:35 AM 27.9 °F 20.6 °F 27.1 °F 97% 30.29 in 4.0 mi WSW 6.9 mph - N/A   Clear
6:55 AM 28.2 °F 22.0 °F 27.7 °F 98% 30.30 in 5.0 mi WSW 5.8 mph - N/A   Clear
7:15 AM 29.5 °F 22.5 °F 28.8 °F 97% 30.32 in 5.0 mi WSW 6.9 mph - N/A   Clear
7:35 AM 30.6 °F 23.8 °F 29.5 °F 96% 30.32 in 5.0 mi West 6.9 mph - N/A   Clear
7:55 AM 31.6 °F 25.1 °F 30.2 °F 94% 30.32 in 7.0 mi West 6.9 mph - N/A   Clear
8:15 AM 32.2 °F 25.0 °F 30.7 °F 94% 30.33 in 7.0 mi WSW 8.1 mph - N/A   Clear
8:35 AM 33.6 °F 26.8 °F 31.6 °F 92% 30.33 in 7.0 mi West 8.1 mph - N/A   Clear
8:55 AM 35.2 °F 29.5 °F 32.0 °F 88% 30.33 in 10.0 mi West 6.9 mph - N/A   Clear
9:15 AM 36.7 °F 30.5 °F 32.4 °F 84% 30.33 in 10.0 mi WSW 8.1 mph - N/A   Clear
9:35 AM 38.1 °F 31.7 °F 32.5 °F 80% 30.33 in 10.0 mi WSW 9.2 mph - N/A   Clear
9:55 AM 39.0 °F 35.7 °F 31.6 °F 75% 30.33 in 10.0 mi WSW 4.6 mph - N/A   Clear
10:15 AM 39.9 °F 35.8 °F 30.6 °F 69% 30.33 in 10.0 mi WSW 5.8 mph - N/A   Clear
10:35 AM 40.5 °F 38.4 °F 29.5 °F 65% 30.33 in 10.0 mi West 3.5 mph - N/A   Clear
10:55 AM 41.0 °F 39.0 °F 28.4 °F 61% 30.32 in 10.0 mi SSW 3.5 mph - N/A   Clear
11:15 AM 41.9 °F 39.0 °F 27.3 °F 56% 30.30 in 10.0 mi West 4.6 mph - N/A   Clear
11:35 AM 43.2 °F 40.5 °F 28.0 °F 55% 30.29 in 10.0 mi WSW 4.6 mph - N/A   Clear
11:55 AM 43.7 °F 40.3 °F 27.0 °F 52% 30.28 in 10.0 mi SW 5.8 mph - N/A   Clear
12:15 PM 44.4 °F 42.0 °F 27.0 °F 50% 30.27 in 10.0 mi WSW 4.6 mph - N/A   Clear
12:35 PM 45.1 °F 40.8 °F 27.3 °F 50% 30.26 in 10.0 mi WSW 8.1 mph - N/A   Clear
12:55 PM 45.7 °F 41.5 °F 27.5 °F 49% 30.26 in 10.0 mi WSW 8.1 mph - N/A   Clear
1:15 PM 45.9 °F 42.9 °F 27.9 °F 49% 30.24 in 10.0 mi SSW 5.8 mph - N/A   Clear
1:35 PM 46.6 °F - 28.8 °F 50% 30.24 in 10.0 mi SSW 4.6 mph - N/A   Clear
1:55 PM 46.6 °F - 28.6 °F 50% 30.24 in 10.0 mi SSW 9.2 mph - N/A   Clear
2:15 PM 46.6 °F - 28.9 °F 50% 30.23 in 10.0 mi SW 6.9 mph - N/A   Clear
2:35 PM 46.6 °F - 29.8 °F 52% 30.22 in 10.0 mi South 5.8 mph - N/A   Clear
2:55 PM 46.9 °F - 30.0 °F 52% 30.22 in 10.0 mi SSW 6.9 mph - N/A   Clear
3:15 PM 46.6 °F - 30.2 °F 53% 30.21 in 10.0 mi SSW 8.1 mph - N/A   Clear
3:35 PM 46.0 °F 41.9 °F 30.9 °F 56% 30.21 in 10.0 mi SSW 8.1 mph - N/A   Clear
3:55 PM 45.7 °F 41.0 °F 30.9 °F 56% 30.21 in 10.0 mi South 9.2 mph - N/A   Clear
4:15 PM 45.1 °F 42.0 °F 31.5 °F 59% 30.21 in 10.0 mi SSW 5.8 mph - N/A   Clear
4:35 PM 44.4 °F 40.5 °F 32.0 °F 62% 30.20 in 10.0 mi South 6.9 mph - N/A   Scattered Clouds
4:55 PM 43.5 °F 40.1 °F 32.0 °F 64% 30.20 in 10.0 mi South 5.8 mph - N/A   Scattered Clouds
5:15 PM 41.9 °F 37.5 °F 32.0 °F 68% 30.18 in 10.0 mi SSE 6.9 mph - N/A   Clear
5:35 PM 41.4 °F 36.8 °F 32.0 °F 69% 30.17 in 10.0 mi SSE 6.9 mph - N/A   Scattered Clouds
5:55 PM 41.4 °F 37.6 °F 32.2 °F 70% 30.18 in 10.0 mi South 5.8 mph - N/A   Scattered Clouds
6:15 PM 41.5 °F 36.4 °F 32.0 °F 69% 30.17 in 10.0 mi SE 8.1 mph - N/A   Clear
6:35 PM 41.7 °F 37.3 °F 32.0 °F 68% 30.16 in 10.0 mi SE 6.9 mph - N/A   Clear
6:55 PM 41.5 °F 36.4 °F 32.0 °F 69% 30.15 in 10.0 mi SSE 8.1 mph - N/A   Clear
7:15 PM 41.9 °F 37.5 °F 32.0 °F 68% 30.15 in 10.0 mi SSE 6.9 mph - N/A   Clear
7:35 PM 41.9 °F 36.3 °F 31.8 °F 67% 30.14 in 10.0 mi SSE 9.2 mph - N/A   Clear
7:55 PM 41.9 °F 36.9 °F 31.5 °F 66% 30.14 in 10.0 mi SSE 8.1 mph - N/A   Clear
8:15 PM 42.1 °F 37.1 °F 31.3 °F 66% 30.14 in 10.0 mi South 8.1 mph - N/A   Clear
8:35 PM 41.9 °F 36.3 °F 31.1 °F 66% 30.13 in 10.0 mi South 9.2 mph - N/A   Clear
8:55 PM 42.6 °F 36.3 °F 30.2 °F 61% 30.13 in 10.0 mi South 11.5 mph 16.1 mph N/A   Clear
9:15 PM 43.5 °F 37.1 °F 29.5 °F 58% 30.11 in 10.0 mi South 12.7 mph - N/A   Clear
9:35 PM 43.7 °F 37.3 °F 29.1 °F 57% 30.11 in 10.0 mi South 12.7 mph - N/A   Clear
9:55 PM 43.9 °F 37.5 °F 28.8 °F 55% 30.10 in 10.0 mi South 12.7 mph 19.6 mph N/A   Clear
10:15 PM 44.2 °F 38.4 °F 28.4 °F 54% 30.10 in 10.0 mi South 11.5 mph - N/A   Scattered Clouds
10:35 PM 44.1 °F 37.4 °F 28.4 °F 54% 30.10 in 10.0 mi South 13.8 mph 20.7 mph N/A   Mostly Cloudy
10:55 PM 44.1 °F 37.7 °F 28.6 °F 55% 30.09 in 10.0 mi South 12.7 mph - N/A   Mostly Cloudy
11:15 PM 44.1 °F 37.7 °F 28.8 °F 55% 30.08 in 10.0 mi South 12.7 mph - N/A   Mostly Cloudy
11:35 PM 43.9 °F 37.5 °F 28.9 °F 56% 30.07 in 10.0 mi South 12.7 mph - N/A   Scattered Clouds
11:55 PM 43.7 °F 36.9 °F 29.1 °F 57% 30.06 in 10.0 mi South 13.8 mph 18.4 mph N/A   Scattered Clouds